sensor_id;sensor_type;location;lat;lon;timestamp;P1;durP1;ratioP1;P2;durP2;ratioP2
11230;SDS011;5672;51.060;3.734;2022-07-30T00:02:14;4.17;;;3.87;;
11230;SDS011;5672;51.060;3.734;2022-07-30T00:04:40;5.50;;;4.27;;
11230;SDS011;5672;51.060;3.734;2022-07-30T00:07:06;8.77;;;4.30;;
11230;SDS011;5672;51.060;3.734;2022-07-30T00:09:33;7.00;;;4.10;;
11230;SDS011;5672;51.060;3.734;2022-07-30T00:11:59;8.33;;;4.47;;
11230;SDS011;5672;51.060;3.734;2022-07-30T00:14:25;7.50;;;4.50;;
11230;SDS011;5672;51.060;3.734;2022-07-30T00:16:51;6.03;;;4.03;;
11230;SDS011;5672;51.060;3.734;2022-07-30T00:19:18;5.20;;;4.70;;
11230;SDS011;5672;51.060;3.734;2022-07-30T00:21:44;5.03;;;4.50;;
11230;SDS011;5672;51.060;3.734;2022-07-30T00:24:10;8.93;;;5.47;;
11230;SDS011;5672;51.060;3.734;2022-07-30T00:26:36;7.33;;;5.47;;
11230;SDS011;5672;51.060;3.734;2022-07-30T00:29:03;6.37;;;5.60;;
11230;SDS011;5672;51.060;3.734;2022-07-30T00:31:29;6.03;;;4.50;;
11230;SDS011;5672;51.060;3.734;2022-07-30T00:33:55;6.37;;;4.67;;
11230;SDS011;5672;51.060;3.734;2022-07-30T00:36:21;7.73;;;4.60;;
11230;SDS011;5672;51.060;3.734;2022-07-30T00:38:47;8.73;;;4.63;;
11230;SDS011;5672;51.060;3.734;2022-07-30T00:41:13;10.83;;;4.70;;
11230;SDS011;5672;51.060;3.734;2022-07-30T00:43:39;8.20;;;4.60;;
11230;SDS011;5672;51.060;3.734;2022-07-30T00:46:05;8.97;;;4.30;;
11230;SDS011;5672;51.060;3.734;2022-07-30T00:48:31;4.63;;;4.23;;
11230;SDS011;5672;51.060;3.734;2022-07-30T00:50:57;6.43;;;4.30;;
11230;SDS011;5672;51.060;3.734;2022-07-30T00:53:24;8.63;;;4.90;;
11230;SDS011;5672;51.060;3.734;2022-07-30T00:55:50;6.70;;;4.80;;
11230;SDS011;5672;51.060;3.734;2022-07-30T00:58:16;10.77;;;5.67;;
11230;SDS011;5672;51.060;3.734;2022-07-30T01:00:42;5.77;;;5.20;;
11230;SDS011;5672;51.060;3.734;2022-07-30T01:03:08;8.53;;;5.27;;
11230;SDS011;5672;51.060;3.734;2022-07-30T01:05:34;6.57;;;4.50;;
11230;SDS011;5672;51.060;3.734;2022-07-30T01:08:00;6.60;;;4.47;;
11230;SDS011;5672;51.060;3.734;2022-07-30T01:10:26;4.47;;;4.03;;
11230;SDS011;5672;51.060;3.734;2022-07-30T01:12:52;5.93;;;4.93;;
11230;SDS011;5672;51.060;3.734;2022-07-30T01:15:18;7.67;;;4.80;;
11230;SDS011;5672;51.060;3.734;2022-07-30T01:17:48;5.37;;;4.50;;
11230;SDS011;5672;51.060;3.734;2022-07-30T01:20:16;6.97;;;5.07;;
11230;SDS011;5672;51.060;3.734;2022-07-30T01:22:49;7.50;;;4.93;;
11230;SDS011;5672;51.060;3.734;2022-07-30T01:28:15;6.43;;;4.27;;
11230;SDS011;5672;51.060;3.734;2022-07-30T01:30:44;8.47;;;5.07;;
11230;SDS011;5672;51.060;3.734;2022-07-30T01:33:14;7.53;;;4.87;;
11230;SDS011;5672;51.060;3.734;2022-07-30T01:35:42;10.50;;;5.17;;
11230;SDS011;5672;51.060;3.734;2022-07-30T01:38:09;6.80;;;5.10;;
11230;SDS011;5672;51.060;3.734;2022-07-30T01:40:37;7.87;;;5.20;;
11230;SDS011;5672;51.060;3.734;2022-07-30T01:43:04;5.30;;;4.80;;
11230;SDS011;5672;51.060;3.734;2022-07-30T01:45:31;5.63;;;4.97;;
11230;SDS011;5672;51.060;3.734;2022-07-30T01:47:57;4.73;;;4.33;;
11230;SDS011;5672;51.060;3.734;2022-07-30T01:50:25;6.13;;;4.20;;
11230;SDS011;5672;51.060;3.734;2022-07-30T01:52:51;6.17;;;4.70;;
11230;SDS011;5672;51.060;3.734;2022-07-30T01:55:24;6.07;;;4.20;;
11230;SDS011;5672;51.060;3.734;2022-07-30T01:57:51;4.70;;;4.07;;
11230;SDS011;5672;51.060;3.734;2022-07-30T02:00:18;8.40;;;4.17;;
11230;SDS011;5672;51.060;3.734;2022-07-30T02:02:44;6.90;;;4.00;;
11230;SDS011;5672;51.060;3.734;2022-07-30T02:05:11;8.10;;;4.07;;
11230;SDS011;5672;51.060;3.734;2022-07-30T02:07:37;7.57;;;4.57;;
11230;SDS011;5672;51.060;3.734;2022-07-30T02:10:13;6.00;;;3.90;;
11230;SDS011;5672;51.060;3.734;2022-07-30T02:12:42;6.90;;;4.37;;
11230;SDS011;5672;51.060;3.734;2022-07-30T02:18:02;6.47;;;3.70;;
11230;SDS011;5672;51.060;3.734;2022-07-30T02:20:29;6.40;;;3.70;;
11230;SDS011;5672;51.060;3.734;2022-07-30T02:22:57;6.20;;;4.17;;
11230;SDS011;5672;51.060;3.734;2022-07-30T02:25:24;6.67;;;5.00;;
11230;SDS011;5672;51.060;3.734;2022-07-30T02:27:53;6.23;;;4.20;;
11230;SDS011;5672;51.060;3.734;2022-07-30T02:30:22;4.73;;;3.90;;
11230;SDS011;5672;51.060;3.734;2022-07-30T02:32:50;5.63;;;4.03;;
11230;SDS011;5672;51.060;3.734;2022-07-30T02:35:19;6.77;;;4.53;;
11230;SDS011;5672;51.060;3.734;2022-07-30T02:37:46;6.30;;;4.30;;
11230;SDS011;5672;51.060;3.734;2022-07-30T02:40:16;6.17;;;4.63;;
11230;SDS011;5672;51.060;3.734;2022-07-30T02:42:44;7.93;;;4.90;;
11230;SDS011;5672;51.060;3.734;2022-07-30T02:45:11;9.30;;;4.40;;
11230;SDS011;5672;51.060;3.734;2022-07-30T02:47:37;7.93;;;4.57;;
11230;SDS011;5672;51.060;3.734;2022-07-30T02:50:04;5.63;;;4.90;;
11230;SDS011;5672;51.060;3.734;2022-07-30T02:52:31;6.40;;;4.87;;
11230;SDS011;5672;51.060;3.734;2022-07-30T02:54:57;10.30;;;5.13;;
11230;SDS011;5672;51.060;3.734;2022-07-30T02:57:23;5.73;;;4.97;;
11230;SDS011;5672;51.060;3.734;2022-07-30T02:59:50;6.90;;;5.47;;
11230;SDS011;5672;51.060;3.734;2022-07-30T03:02:18;8.23;;;5.03;;
11230;SDS011;5672;51.060;3.734;2022-07-30T03:04:45;6.60;;;4.97;;
11230;SDS011;5672;51.060;3.734;2022-07-30T03:07:13;7.07;;;4.97;;
11230;SDS011;5672;51.060;3.734;2022-07-30T03:09:40;7.03;;;5.43;;
11230;SDS011;5672;51.060;3.734;2022-07-30T03:12:07;6.63;;;5.30;;
11230;SDS011;5672;51.060;3.734;2022-07-30T03:14:35;7.77;;;5.67;;
11230;SDS011;5672;51.060;3.734;2022-07-30T03:17:01;7.93;;;5.27;;
11230;SDS011;5672;51.060;3.734;2022-07-30T03:19:28;8.00;;;5.43;;
11230;SDS011;5672;51.060;3.734;2022-07-30T03:21:56;9.10;;;5.07;;
11230;SDS011;5672;51.060;3.734;2022-07-30T03:24:23;5.77;;;5.13;;
11230;SDS011;5672;51.060;3.734;2022-07-30T03:26:50;6.20;;;5.53;;
11230;SDS011;5672;51.060;3.734;2022-07-30T03:29:17;7.87;;;5.43;;
11230;SDS011;5672;51.060;3.734;2022-07-30T03:31:44;7.57;;;6.10;;
11230;SDS011;5672;51.060;3.734;2022-07-30T03:34:10;5.37;;;4.87;;
11230;SDS011;5672;51.060;3.734;2022-07-30T03:36:36;7.10;;;5.13;;
11230;SDS011;5672;51.060;3.734;2022-07-30T03:39:03;5.83;;;5.30;;
11230;SDS011;5672;51.060;3.734;2022-07-30T03:41:31;8.50;;;5.40;;
11230;SDS011;5672;51.060;3.734;2022-07-30T03:43:57;6.83;;;5.30;;
11230;SDS011;5672;51.060;3.734;2022-07-30T03:46:24;8.13;;;6.27;;
11230;SDS011;5672;51.060;3.734;2022-07-30T03:48:51;7.30;;;6.33;;
11230;SDS011;5672;51.060;3.734;2022-07-30T03:51:18;7.40;;;6.67;;
11230;SDS011;5672;51.060;3.734;2022-07-30T03:53:44;6.10;;;5.53;;
11230;SDS011;5672;51.060;3.734;2022-07-30T03:56:11;6.80;;;6.20;;
11230;SDS011;5672;51.060;3.734;2022-07-30T03:58:37;7.93;;;7.00;;
11230;SDS011;5672;51.060;3.734;2022-07-30T04:01:04;7.23;;;6.53;;
11230;SDS011;5672;51.060;3.734;2022-07-30T04:03:30;7.43;;;6.57;;
11230;SDS011;5672;51.060;3.734;2022-07-30T04:05:57;7.33;;;6.23;;
11230;SDS011;5672;51.060;3.734;2022-07-30T04:08:23;9.00;;;6.60;;
11230;SDS011;5672;51.060;3.734;2022-07-30T04:10:49;6.63;;;5.83;;
11230;SDS011;5672;51.060;3.734;2022-07-30T04:13:15;6.73;;;6.00;;
11230;SDS011;5672;51.060;3.734;2022-07-30T04:16:24;8.00;;;5.83;;
11230;SDS011;5672;51.060;3.734;2022-07-30T04:18:41;6.90;;;6.17;;
11230;SDS011;5672;51.060;3.734;2022-07-30T04:21:09;6.87;;;6.13;;
11230;SDS011;5672;51.060;3.734;2022-07-30T04:23:37;7.23;;;6.50;;
11230;SDS011;5672;51.060;3.734;2022-07-30T04:26:04;7.37;;;6.63;;
11230;SDS011;5672;51.060;3.734;2022-07-30T04:28:30;7.53;;;6.40;;
11230;SDS011;5672;51.060;3.734;2022-07-30T04:30:56;7.50;;;6.80;;
11230;SDS011;5672;51.060;3.734;2022-07-30T04:33:23;7.20;;;6.50;;
11230;SDS011;5672;51.060;3.734;2022-07-30T04:35:49;9.80;;;6.80;;
11230;SDS011;5672;51.060;3.734;2022-07-30T04:38:15;8.63;;;7.03;;
11230;SDS011;5672;51.060;3.734;2022-07-30T04:40:41;6.70;;;6.00;;
11230;SDS011;5672;51.060;3.734;2022-07-30T04:43:07;9.17;;;5.83;;
11230;SDS011;5672;51.060;3.734;2022-07-30T04:45:34;8.40;;;6.80;;
11230;SDS011;5672;51.060;3.734;2022-07-30T04:48:00;8.00;;;6.20;;
11230;SDS011;5672;51.060;3.734;2022-07-30T04:50:27;7.70;;;6.60;;
11230;SDS011;5672;51.060;3.734;2022-07-30T04:52:54;7.93;;;6.80;;
11230;SDS011;5672;51.060;3.734;2022-07-30T04:55:21;6.77;;;6.13;;
11230;SDS011;5672;51.060;3.734;2022-07-30T04:57:48;6.93;;;6.23;;
11230;SDS011;5672;51.060;3.734;2022-07-30T05:00:15;7.37;;;5.73;;
11230;SDS011;5672;51.060;3.734;2022-07-30T05:02:41;7.03;;;6.10;;
11230;SDS011;5672;51.060;3.734;2022-07-30T05:05:07;7.03;;;6.20;;
11230;SDS011;5672;51.060;3.734;2022-07-30T05:07:33;6.73;;;6.13;;
11230;SDS011;5672;51.060;3.734;2022-07-30T05:09:59;8.73;;;6.07;;
11230;SDS011;5672;51.060;3.734;2022-07-30T05:12:34;6.80;;;6.20;;
11230;SDS011;5672;51.060;3.734;2022-07-30T05:15:07;7.77;;;6.30;;
11230;SDS011;5672;51.060;3.734;2022-07-30T05:17:34;7.30;;;6.50;;
11230;SDS011;5672;51.060;3.734;2022-07-30T05:20:00;7.47;;;6.50;;
11230;SDS011;5672;51.060;3.734;2022-07-30T05:22:26;6.97;;;6.27;;
11230;SDS011;5672;51.060;3.734;2022-07-30T05:24:57;8.33;;;6.10;;
11230;SDS011;5672;51.060;3.734;2022-07-30T05:27:23;8.97;;;6.40;;
11230;SDS011;5672;51.060;3.734;2022-07-30T05:29:49;8.93;;;6.30;;
11230;SDS011;5672;51.060;3.734;2022-07-30T05:32:15;7.60;;;6.80;;
11230;SDS011;5672;51.060;3.734;2022-07-30T05:34:41;8.97;;;6.23;;
11230;SDS011;5672;51.060;3.734;2022-07-30T05:37:07;8.60;;;6.50;;
11230;SDS011;5672;51.060;3.734;2022-07-30T05:39:33;8.07;;;5.70;;
11230;SDS011;5672;51.060;3.734;2022-07-30T05:41:59;7.27;;;6.20;;
11230;SDS011;5672;51.060;3.734;2022-07-30T05:44:25;7.70;;;6.80;;
11230;SDS011;5672;51.060;3.734;2022-07-30T05:46:51;7.97;;;7.17;;
11230;SDS011;5672;51.060;3.734;2022-07-30T05:49:18;10.77;;;6.43;;
11230;SDS011;5672;51.060;3.734;2022-07-30T05:51:44;7.47;;;6.77;;
11230;SDS011;5672;51.060;3.734;2022-07-30T05:54:10;7.30;;;6.67;;
11230;SDS011;5672;51.060;3.734;2022-07-30T05:56:36;6.50;;;6.00;;
11230;SDS011;5672;51.060;3.734;2022-07-30T05:59:02;8.50;;;6.17;;
11230;SDS011;5672;51.060;3.734;2022-07-30T06:01:28;7.30;;;5.97;;
11230;SDS011;5672;51.060;3.734;2022-07-30T06:03:54;6.73;;;6.00;;
11230;SDS011;5672;51.060;3.734;2022-07-30T06:06:20;8.13;;;5.30;;
11230;SDS011;5672;51.060;3.734;2022-07-30T06:08:46;7.83;;;5.50;;
11230;SDS011;5672;51.060;3.734;2022-07-30T06:11:14;5.87;;;5.10;;
11230;SDS011;5672;51.060;3.734;2022-07-30T06:13:40;7.33;;;5.07;;
11230;SDS011;5672;51.060;3.734;2022-07-30T06:16:06;6.07;;;5.27;;
11230;SDS011;5672;51.060;3.734;2022-07-30T06:18:32;11.70;;;5.83;;
11230;SDS011;5672;51.060;3.734;2022-07-30T06:20:58;6.40;;;5.53;;
11230;SDS011;5672;51.060;3.734;2022-07-30T06:23:24;8.03;;;5.50;;
11230;SDS011;5672;51.060;3.734;2022-07-30T06:25:50;6.80;;;6.20;;
11230;SDS011;5672;51.060;3.734;2022-07-30T06:28:16;6.63;;;5.70;;
11230;SDS011;5672;51.060;3.734;2022-07-30T06:30:43;7.80;;;5.30;;
11230;SDS011;5672;51.060;3.734;2022-07-30T06:33:13;6.93;;;5.00;;
11230;SDS011;5672;51.060;3.734;2022-07-30T06:35:39;5.90;;;4.60;;
11230;SDS011;5672;51.060;3.734;2022-07-30T06:38:05;5.03;;;4.53;;
11230;SDS011;5672;51.060;3.734;2022-07-30T06:40:31;6.33;;;3.97;;
11230;SDS011;5672;51.060;3.734;2022-07-30T06:42:57;4.70;;;4.03;;
11230;SDS011;5672;51.060;3.734;2022-07-30T06:45:23;8.10;;;3.60;;
11230;SDS011;5672;51.060;3.734;2022-07-30T06:47:49;8.37;;;4.00;;
11230;SDS011;5672;51.060;3.734;2022-07-30T06:50:15;7.97;;;4.10;;
11230;SDS011;5672;51.060;3.734;2022-07-30T06:52:44;6.13;;;4.33;;
11230;SDS011;5672;51.060;3.734;2022-07-30T06:55:10;7.17;;;4.50;;
11230;SDS011;5672;51.060;3.734;2022-07-30T06:57:36;4.10;;;3.53;;
11230;SDS011;5672;51.060;3.734;2022-07-30T07:00:02;3.80;;;3.50;;
11230;SDS011;5672;51.060;3.734;2022-07-30T07:02:29;7.27;;;3.70;;
11230;SDS011;5672;51.060;3.734;2022-07-30T07:04:55;7.40;;;3.70;;
11230;SDS011;5672;51.060;3.734;2022-07-30T07:07:21;3.53;;;3.13;;
11230;SDS011;5672;51.060;3.734;2022-07-30T07:09:47;6.03;;;3.80;;
11230;SDS011;5672;51.060;3.734;2022-07-30T07:12:13;3.67;;;3.40;;
11230;SDS011;5672;51.060;3.734;2022-07-30T07:14:39;3.97;;;3.37;;
11230;SDS011;5672;51.060;3.734;2022-07-30T07:17:05;5.03;;;3.63;;
11230;SDS011;5672;51.060;3.734;2022-07-30T07:19:31;4.93;;;3.77;;
11230;SDS011;5672;51.060;3.734;2022-07-30T07:21:57;5.13;;;3.10;;
11230;SDS011;5672;51.060;3.734;2022-07-30T07:24:23;4.77;;;3.00;;
11230;SDS011;5672;51.060;3.734;2022-07-30T07:26:49;5.70;;;2.43;;
11230;SDS011;5672;51.060;3.734;2022-07-30T07:29:16;4.90;;;2.57;;
11230;SDS011;5672;51.060;3.734;2022-07-30T07:31:42;2.83;;;2.50;;
11230;SDS011;5672;51.060;3.734;2022-07-30T07:34:08;3.23;;;2.53;;
11230;SDS011;5672;51.060;3.734;2022-07-30T07:36:34;3.70;;;2.17;;
11230;SDS011;5672;51.060;3.734;2022-07-30T07:39:00;4.77;;;2.50;;
11230;SDS011;5672;51.060;3.734;2022-07-30T07:41:26;3.47;;;2.70;;
11230;SDS011;5672;51.060;3.734;2022-07-30T07:43:52;2.70;;;2.20;;
11230;SDS011;5672;51.060;3.734;2022-07-30T07:46:18;2.83;;;1.87;;
11230;SDS011;5672;51.060;3.734;2022-07-30T07:48:44;4.23;;;2.63;;
11230;SDS011;5672;51.060;3.734;2022-07-30T07:51:10;5.13;;;1.60;;
11230;SDS011;5672;51.060;3.734;2022-07-30T07:53:36;1.80;;;1.70;;
11230;SDS011;5672;51.060;3.734;2022-07-30T07:56:02;4.27;;;1.80;;
11230;SDS011;5672;51.060;3.734;2022-07-30T07:58:28;6.43;;;2.10;;
11230;SDS011;5672;51.060;3.734;2022-07-30T08:00:54;2.53;;;2.00;;
11230;SDS011;5672;51.060;3.734;2022-07-30T08:03:20;2.20;;;2.00;;
11230;SDS011;5672;51.060;3.734;2022-07-30T08:05:46;2.10;;;1.70;;
11230;SDS011;5672;51.060;3.734;2022-07-30T08:08:12;3.23;;;2.00;;
11230;SDS011;5672;51.060;3.734;2022-07-30T08:10:38;3.03;;;1.60;;
11230;SDS011;5672;51.060;3.734;2022-07-30T08:13:04;2.73;;;2.13;;
11230;SDS011;5672;51.060;3.734;2022-07-30T08:15:30;7.43;;;2.20;;
11230;SDS011;5672;51.060;3.734;2022-07-30T08:17:57;2.33;;;1.60;;
11230;SDS011;5672;51.060;3.734;2022-07-30T08:20:23;4.50;;;1.90;;
11230;SDS011;5672;51.060;3.734;2022-07-30T08:22:49;2.60;;;1.90;;
11230;SDS011;5672;51.060;3.734;2022-07-30T08:25:15;2.63;;;1.50;;
11230;SDS011;5672;51.060;3.734;2022-07-30T08:27:44;1.80;;;1.70;;
11230;SDS011;5672;51.060;3.734;2022-07-30T08:30:10;3.03;;;1.87;;
11230;SDS011;5672;51.060;3.734;2022-07-30T08:32:37;3.00;;;1.60;;
11230;SDS011;5672;51.060;3.734;2022-07-30T08:35:03;1.93;;;1.70;;
11230;SDS011;5672;51.060;3.734;2022-07-30T08:37:29;4.43;;;1.80;;
11230;SDS011;5672;51.060;3.734;2022-07-30T08:39:55;1.80;;;1.70;;
11230;SDS011;5672;51.060;3.734;2022-07-30T08:42:21;3.83;;;2.17;;
11230;SDS011;5672;51.060;3.734;2022-07-30T08:44:48;1.70;;;1.60;;
11230;SDS011;5672;51.060;3.734;2022-07-30T08:47:15;4.87;;;1.87;;
11230;SDS011;5672;51.060;3.734;2022-07-30T08:49:42;1.77;;;1.60;;
11230;SDS011;5672;51.060;3.734;2022-07-30T08:52:09;2.70;;;1.70;;
11230;SDS011;5672;51.060;3.734;2022-07-30T08:54:35;2.63;;;1.70;;
11230;SDS011;5672;51.060;3.734;2022-07-30T08:57:01;5.17;;;2.13;;
11230;SDS011;5672;51.060;3.734;2022-07-30T08:59:28;3.23;;;1.87;;
11230;SDS011;5672;51.060;3.734;2022-07-30T09:01:54;3.17;;;2.00;;
11230;SDS011;5672;51.060;3.734;2022-07-30T09:04:20;2.50;;;1.73;;
11230;SDS011;5672;51.060;3.734;2022-07-30T09:06:46;5.10;;;1.80;;
11230;SDS011;5672;51.060;3.734;2022-07-30T09:09:12;4.00;;;1.90;;
11230;SDS011;5672;51.060;3.734;2022-07-30T09:11:38;1.93;;;1.60;;
11230;SDS011;5672;51.060;3.734;2022-07-30T09:14:11;1.73;;;1.63;;
11230;SDS011;5672;51.060;3.734;2022-07-30T09:16:37;3.83;;;1.70;;
11230;SDS011;5672;51.060;3.734;2022-07-30T09:19:14;2.03;;;1.80;;
11230;SDS011;5672;51.060;3.734;2022-07-30T09:21:40;3.70;;;1.80;;
11230;SDS011;5672;51.060;3.734;2022-07-30T09:24:08;3.27;;;1.67;;
11230;SDS011;5672;51.060;3.734;2022-07-30T09:26:50;2.13;;;1.50;;
11230;SDS011;5672;51.060;3.734;2022-07-30T09:29:20;1.30;;;1.30;;
11230;SDS011;5672;51.060;3.734;2022-07-30T09:31:53;1.83;;;1.70;;
11230;SDS011;5672;51.060;3.734;2022-07-30T09:34:26;1.70;;;1.60;;
11230;SDS011;5672;51.060;3.734;2022-07-30T09:36:53;2.77;;;1.60;;
11230;SDS011;5672;51.060;3.734;2022-07-30T09:39:35;2.10;;;1.60;;
11230;SDS011;5672;51.060;3.734;2022-07-30T09:42:02;3.90;;;1.70;;
11230;SDS011;5672;51.060;3.734;2022-07-30T09:44:28;1.93;;;1.77;;
11230;SDS011;5672;51.060;3.734;2022-07-30T09:46:55;2.20;;;2.00;;
11230;SDS011;5672;51.060;3.734;2022-07-30T09:49:22;7.70;;;6.33;;
11230;SDS011;5672;51.060;3.734;2022-07-30T09:51:49;4.07;;;3.50;;
11230;SDS011;5672;51.060;3.734;2022-07-30T09:54:15;2.50;;;2.03;;
11230;SDS011;5672;51.060;3.734;2022-07-30T09:56:41;3.37;;;3.10;;
11230;SDS011;5672;51.060;3.734;2022-07-30T09:59:25;4.33;;;2.80;;
11230;SDS011;5672;51.060;3.734;2022-07-30T10:01:52;2.27;;;2.10;;
11230;SDS011;5672;51.060;3.734;2022-07-30T10:04:22;2.37;;;2.23;;
11230;SDS011;5672;51.060;3.734;2022-07-30T10:06:48;2.50;;;2.27;;
11230;SDS011;5672;51.060;3.734;2022-07-30T10:09:23;2.00;;;1.90;;
11230;SDS011;5672;51.060;3.734;2022-07-30T10:11:49;2.30;;;1.70;;
11230;SDS011;5672;51.060;3.734;2022-07-30T10:14:15;4.10;;;1.60;;
11230;SDS011;5672;51.060;3.734;2022-07-30T10:16:42;3.93;;;1.53;;
11230;SDS011;5672;51.060;3.734;2022-07-30T10:19:08;2.90;;;1.60;;
11230;SDS011;5672;51.060;3.734;2022-07-30T10:21:34;1.60;;;1.50;;
11230;SDS011;5672;51.060;3.734;2022-07-30T10:24:00;1.70;;;1.60;;
11230;SDS011;5672;51.060;3.734;2022-07-30T10:26:26;1.87;;;1.40;;
11230;SDS011;5672;51.060;3.734;2022-07-30T10:28:53;1.60;;;1.50;;
11230;SDS011;5672;51.060;3.734;2022-07-30T10:31:19;3.50;;;3.10;;
11230;SDS011;5672;51.060;3.734;2022-07-30T10:33:45;5.30;;;4.13;;
11230;SDS011;5672;51.060;3.734;2022-07-30T10:36:11;2.00;;;1.90;;
11230;SDS011;5672;51.060;3.734;2022-07-30T10:38:38;3.90;;;2.37;;
11230;SDS011;5672;51.060;3.734;2022-07-30T10:41:07;4.00;;;3.70;;
11230;SDS011;5672;51.060;3.734;2022-07-30T10:48:39;2.37;;;1.90;;
11230;SDS011;5672;51.060;3.734;2022-07-30T10:51:05;2.23;;;1.80;;
11230;SDS011;5672;51.060;3.734;2022-07-30T10:58:55;1.70;;;1.60;;
11230;SDS011;5672;51.060;3.734;2022-07-30T11:01:21;3.00;;;1.70;;
11230;SDS011;5672;51.060;3.734;2022-07-30T11:06:32;2.47;;;1.70;;
11230;SDS011;5672;51.060;3.734;2022-07-30T11:08:58;2.67;;;1.67;;
11230;SDS011;5672;51.060;3.734;2022-07-30T11:14:00;2.30;;;2.10;;
11230;SDS011;5672;51.060;3.734;2022-07-30T11:19:06;1.90;;;1.80;;
11230;SDS011;5672;51.060;3.734;2022-07-30T11:21:33;2.20;;;2.00;;
11230;SDS011;5672;51.060;3.734;2022-07-30T11:24:00;2.00;;;1.70;;
11230;SDS011;5672;51.060;3.734;2022-07-30T11:29:05;2.63;;;1.73;;
11230;SDS011;5672;51.060;3.734;2022-07-30T11:42:33;4.87;;;4.47;;
11230;SDS011;5672;51.060;3.734;2022-07-30T11:47:42;4.77;;;2.60;;
11230;SDS011;5672;51.060;3.734;2022-07-30T11:53:05;1.77;;;1.70;;
11230;SDS011;5672;51.060;3.734;2022-07-30T11:55:32;3.40;;;2.10;;
11230;SDS011;5672;51.060;3.734;2022-07-30T11:57:59;2.60;;;1.80;;
11230;SDS011;5672;51.060;3.734;2022-07-30T12:00:36;3.27;;;2.20;;
11230;SDS011;5672;51.060;3.734;2022-07-30T12:03:06;3.60;;;1.97;;
11230;SDS011;5672;51.060;3.734;2022-07-30T12:05:32;3.23;;;2.30;;
11230;SDS011;5672;51.060;3.734;2022-07-30T12:07:58;1.77;;;1.67;;
11230;SDS011;5672;51.060;3.734;2022-07-30T12:10:24;2.60;;;1.67;;
11230;SDS011;5672;51.060;3.734;2022-07-30T12:12:50;1.63;;;1.53;;
11230;SDS011;5672;51.060;3.734;2022-07-30T12:15:32;1.30;;;1.30;;
11230;SDS011;5672;51.060;3.734;2022-07-30T12:17:59;1.77;;;1.50;;
11230;SDS011;5672;51.060;3.734;2022-07-30T12:20:26;4.10;;;1.73;;
11230;SDS011;5672;51.060;3.734;2022-07-30T12:22:52;2.67;;;1.47;;
11230;SDS011;5672;51.060;3.734;2022-07-30T12:25:18;7.80;;;3.77;;
11230;SDS011;5672;51.060;3.734;2022-07-30T12:27:46;2.67;;;2.13;;
11230;SDS011;5672;51.060;3.734;2022-07-30T12:30:12;2.20;;;2.10;;
11230;SDS011;5672;51.060;3.734;2022-07-30T12:32:39;2.13;;;1.60;;
11230;SDS011;5672;51.060;3.734;2022-07-30T12:35:06;3.43;;;1.83;;
11230;SDS011;5672;51.060;3.734;2022-07-30T12:37:32;6.10;;;1.60;;
11230;SDS011;5672;51.060;3.734;2022-07-30T12:42:34;4.10;;;1.63;;
11230;SDS011;5672;51.060;3.734;2022-07-30T12:45:00;1.40;;;1.40;;
11230;SDS011;5672;51.060;3.734;2022-07-30T12:47:27;1.63;;;1.53;;
11230;SDS011;5672;51.060;3.734;2022-07-30T12:49:54;1.60;;;1.40;;
11230;SDS011;5672;51.060;3.734;2022-07-30T12:52:26;2.07;;;1.80;;
11230;SDS011;5672;51.060;3.734;2022-07-30T12:55:03;2.17;;;1.50;;
11230;SDS011;5672;51.060;3.734;2022-07-30T13:00:14;6.27;;;3.83;;
11230;SDS011;5672;51.060;3.734;2022-07-30T13:02:40;4.00;;;3.53;;
11230;SDS011;5672;51.060;3.734;2022-07-30T13:05:07;3.63;;;2.40;;
11230;SDS011;5672;51.060;3.734;2022-07-30T13:07:33;1.67;;;1.57;;
11230;SDS011;5672;51.060;3.734;2022-07-30T13:10:10;2.00;;;1.90;;
11230;SDS011;5672;51.060;3.734;2022-07-30T13:12:36;1.60;;;1.50;;
11230;SDS011;5672;51.060;3.734;2022-07-30T13:15:05;3.03;;;1.40;;
11230;SDS011;5672;51.060;3.734;2022-07-30T13:17:31;2.10;;;1.70;;
11230;SDS011;5672;51.060;3.734;2022-07-30T13:19:57;2.47;;;1.77;;
11230;SDS011;5672;51.060;3.734;2022-07-30T13:22:24;2.30;;;1.67;;
11230;SDS011;5672;51.060;3.734;2022-07-30T13:24:50;3.73;;;1.67;;
11230;SDS011;5672;51.060;3.734;2022-07-30T13:27:16;1.90;;;1.80;;
11230;SDS011;5672;51.060;3.734;2022-07-30T13:29:42;2.40;;;1.50;;
11230;SDS011;5672;51.060;3.734;2022-07-30T13:32:08;2.63;;;1.47;;
11230;SDS011;5672;51.060;3.734;2022-07-30T13:34:34;1.80;;;1.60;;
11230;SDS011;5672;51.060;3.734;2022-07-30T13:37:00;7.00;;;1.70;;
11230;SDS011;5672;51.060;3.734;2022-07-30T13:39:26;2.43;;;1.50;;
11230;SDS011;5672;51.060;3.734;2022-07-30T13:41:53;4.00;;;1.70;;
11230;SDS011;5672;51.060;3.734;2022-07-30T13:44:19;1.93;;;1.20;;
11230;SDS011;5672;51.060;3.734;2022-07-30T13:46:45;2.57;;;1.70;;
11230;SDS011;5672;51.060;3.734;2022-07-30T13:49:11;1.37;;;1.37;;
11230;SDS011;5672;51.060;3.734;2022-07-30T13:51:37;2.37;;;1.60;;
11230;SDS011;5672;51.060;3.734;2022-07-30T13:54:03;1.73;;;1.40;;
11230;SDS011;5672;51.060;3.734;2022-07-30T13:56:29;1.37;;;1.27;;
11230;SDS011;5672;51.060;3.734;2022-07-30T13:58:55;1.73;;;1.47;;
11230;SDS011;5672;51.060;3.734;2022-07-30T14:01:21;1.87;;;1.70;;
11230;SDS011;5672;51.060;3.734;2022-07-30T14:03:47;3.87;;;1.60;;
11230;SDS011;5672;51.060;3.734;2022-07-30T14:06:13;1.83;;;1.73;;
11230;SDS011;5672;51.060;3.734;2022-07-30T14:08:39;1.73;;;1.40;;
11230;SDS011;5672;51.060;3.734;2022-07-30T14:11:05;1.87;;;1.60;;
11230;SDS011;5672;51.060;3.734;2022-07-30T14:13:32;1.53;;;1.53;;
11230;SDS011;5672;51.060;3.734;2022-07-30T14:15:58;1.70;;;1.60;;
11230;SDS011;5672;51.060;3.734;2022-07-30T14:18:24;1.63;;;1.53;;
11230;SDS011;5672;51.060;3.734;2022-07-30T14:20:50;2.80;;;1.53;;
11230;SDS011;5672;51.060;3.734;2022-07-30T14:23:17;1.60;;;1.50;;
11230;SDS011;5672;51.060;3.734;2022-07-30T14:25:44;1.77;;;1.67;;
11230;SDS011;5672;51.060;3.734;2022-07-30T14:28:10;1.90;;;1.50;;
11230;SDS011;5672;51.060;3.734;2022-07-30T14:30:36;1.87;;;1.43;;
11230;SDS011;5672;51.060;3.734;2022-07-30T14:33:02;4.00;;;1.67;;
11230;SDS011;5672;51.060;3.734;2022-07-30T14:35:28;3.90;;;1.70;;
11230;SDS011;5672;51.060;3.734;2022-07-30T14:37:54;3.40;;;1.63;;
11230;SDS011;5672;51.060;3.734;2022-07-30T14:40:20;3.33;;;1.80;;
11230;SDS011;5672;51.060;3.734;2022-07-30T14:42:46;2.60;;;1.40;;
11230;SDS011;5672;51.060;3.734;2022-07-30T14:45:12;1.43;;;1.33;;
11230;SDS011;5672;51.060;3.734;2022-07-30T14:47:39;2.63;;;1.33;;
11230;SDS011;5672;51.060;3.734;2022-07-30T14:50:05;1.70;;;1.47;;
11230;SDS011;5672;51.060;3.734;2022-07-30T14:52:33;1.40;;;1.33;;
11230;SDS011;5672;51.060;3.734;2022-07-30T14:55:01;1.70;;;1.60;;
11230;SDS011;5672;51.060;3.734;2022-07-30T14:57:27;2.53;;;1.67;;
11230;SDS011;5672;51.060;3.734;2022-07-30T14:59:53;2.30;;;1.73;;
11230;SDS011;5672;51.060;3.734;2022-07-30T15:02:19;1.80;;;1.70;;
11230;SDS011;5672;51.060;3.734;2022-07-30T15:04:45;2.07;;;1.97;;
11230;SDS011;5672;51.060;3.734;2022-07-30T15:07:11;4.37;;;2.60;;
11230;SDS011;5672;51.060;3.734;2022-07-30T15:09:37;2.37;;;2.17;;
11230;SDS011;5672;51.060;3.734;2022-07-30T15:12:03;2.73;;;2.40;;
11230;SDS011;5672;51.060;3.734;2022-07-30T15:14:31;4.73;;;2.50;;
11230;SDS011;5672;51.060;3.734;2022-07-30T15:16:57;9.27;;;5.00;;
11230;SDS011;5672;51.060;3.734;2022-07-30T15:19:23;6.13;;;3.50;;
11230;SDS011;5672;51.060;3.734;2022-07-30T15:21:50;7.57;;;4.07;;
11230;SDS011;5672;51.060;3.734;2022-07-30T15:24:16;4.67;;;2.80;;
11230;SDS011;5672;51.060;3.734;2022-07-30T15:26:42;2.50;;;2.30;;
11230;SDS011;5672;51.060;3.734;2022-07-30T15:29:08;2.87;;;2.03;;
11230;SDS011;5672;51.060;3.734;2022-07-30T15:31:35;3.73;;;2.00;;
11230;SDS011;5672;51.060;3.734;2022-07-30T15:34:01;1.83;;;1.73;;
11230;SDS011;5672;51.060;3.734;2022-07-30T15:36:27;2.13;;;2.03;;
11230;SDS011;5672;51.060;3.734;2022-07-30T15:38:53;2.10;;;2.00;;
11230;SDS011;5672;51.060;3.734;2022-07-30T15:41:19;1.67;;;1.57;;
11230;SDS011;5672;51.060;3.734;2022-07-30T15:43:45;2.20;;;2.10;;
11230;SDS011;5672;51.060;3.734;2022-07-30T15:46:11;1.87;;;1.77;;
11230;SDS011;5672;51.060;3.734;2022-07-30T15:48:37;2.90;;;2.00;;